Broadview Heights, Ohio
Current Conditions -  °F | °C
As of 4:15 AM on Thursday 23 Oct 2014 (Local Time) from KCLE Reporting Station
Broken Clouds Broken Clouds  
Wind Chill: 43°   Ceiling: 1300
Heat Index: 45°   Visibility: 10mi
Dew Point: 44°   Wind: 5mph
Humidity: 97%   Direction: 330°NNW
Pressure: 30.22"   Gusts: NA
Location:  41.33°N, 81.68°W
Report Text: KCLE 230815Z 33004KT 10SM BKN013 BKN040 07/07 A3022 RMK AO2 T00720067 $
Loading
Personal Weather Stations






























Interactive Weather Map
Tropical Storm Tracking
New forecast layout! Learn more

10-Day Weather Forecast

Advertisements
Track Severe Weather on mobile